createdAt,value
2022-10-11T00:01:22.033Z,5.97
2022-10-11T00:03:48.682Z,2.37
2022-10-11T00:06:15.355Z,1.93
2022-10-11T00:08:41.914Z,2.63
2022-10-11T00:11:10.374Z,1.50
2022-10-11T00:13:37.102Z,2.10
2022-10-11T00:16:11.463Z,3.80
2022-10-11T00:18:38.480Z,4.00
2022-10-11T00:21:08.513Z,3.20
2022-10-11T00:23:35.664Z,1.83
2022-10-11T00:26:04.843Z,1.43
2022-10-11T00:28:32.081Z,1.93
2022-10-11T00:30:58.973Z,3.17
2022-10-11T00:33:25.909Z,9.90
2022-10-11T00:35:52.536Z,1.17
2022-10-11T00:38:19.421Z,3.20
2022-10-11T00:40:46.148Z,3.13
2022-10-11T00:43:19.294Z,3.57
2022-10-11T00:45:58.163Z,4.80
2022-10-11T00:48:50.651Z,2.50
2022-10-11T00:51:32.952Z,4.40
2022-10-11T00:54:01.469Z,3.03
2022-10-11T00:56:32.660Z,4.97
2022-10-11T00:59:02.369Z,7.47
2022-10-11T01:01:29.024Z,4.43
2022-10-11T01:03:56.651Z,3.67
2022-10-11T01:06:23.361Z,3.17
2022-10-11T01:08:51.431Z,2.73
2022-10-11T01:11:20.960Z,5.77
2022-10-11T01:14:35.364Z,2.60
2022-10-11T01:17:26.450Z,7.93
2022-10-11T01:20:13.125Z,6.57
2022-10-11T01:23:06.701Z,4.37
2022-10-11T01:25:42.456Z,18.83
2022-10-11T01:28:30.763Z,13.43
2022-10-11T01:31:05.976Z,20.27
2022-10-11T01:33:48.880Z,10.00
2022-10-11T01:36:27.770Z,15.33
2022-10-11T01:39:01.190Z,20.70
2022-10-11T01:41:38.380Z,19.40
2022-10-11T01:44:06.553Z,18.93
2022-10-11T01:46:34.173Z,21.60
2022-10-11T01:49:02.370Z,20.10
2022-10-11T01:51:46.330Z,20.17
2022-10-11T01:54:22.710Z,29.13
2022-10-11T01:57:22.547Z,20.83
2022-10-11T02:00:07.241Z,34.53
2022-10-11T02:02:48.648Z,26.90
2022-10-11T02:05:45.285Z,59.93
2022-10-11T02:08:36.535Z,39.07
2022-10-11T02:11:26.626Z,40.03
2022-10-11T02:13:56.625Z,40.10
2022-10-11T02:16:28.362Z,36.10
2022-10-11T02:18:56.698Z,40.00
2022-10-11T02:21:24.587Z,39.80
2022-10-11T02:24:00.073Z,22.50
2022-10-11T02:26:30.526Z,32.77
2022-10-11T02:29:01.263Z,32.03
2022-10-11T02:31:30.334Z,37.23
2022-10-11T02:34:05.842Z,28.77
2022-10-11T02:36:57.702Z,44.13
2022-10-11T02:39:31.676Z,41.17
2022-10-11T02:42:01.457Z,41.53
2022-10-11T02:44:34.967Z,55.90
2022-10-11T02:47:03.270Z,65.13
2022-10-11T02:49:30.964Z,68.63
2022-10-11T02:51:58.779Z,35.07
2022-10-11T02:54:26.250Z,38.93
2022-10-11T02:56:53.440Z,49.93
2022-10-11T02:59:20.031Z,42.93
2022-10-11T03:01:46.799Z,42.30
2022-10-11T03:04:13.555Z,31.53
2022-10-11T03:06:40.155Z,35.70
2022-10-11T03:09:06.797Z,60.27
2022-10-11T03:11:33.349Z,30.23
2022-10-11T03:13:59.920Z,35.70
2022-10-11T03:16:26.586Z,19.00
2022-10-11T03:18:53.145Z,23.27
2022-10-11T03:21:19.776Z,49.30
2022-10-11T03:23:46.389Z,38.63
2022-10-11T03:26:13.027Z,39.77
2022-10-11T03:28:39.760Z,31.63
2022-10-11T03:31:06.424Z,36.13
2022-10-11T03:33:33.030Z,23.60
2022-10-11T03:35:59.581Z,21.23
2022-10-11T03:38:26.364Z,19.37
2022-10-11T03:40:53.035Z,17.20
2022-10-11T03:43:19.721Z,34.53
2022-10-11T03:45:46.383Z,37.03
2022-10-11T03:48:12.956Z,30.57
2022-10-11T03:50:39.900Z,25.37
2022-10-11T03:53:07.067Z,18.87
2022-10-11T03:55:33.718Z,30.17
2022-10-11T03:58:00.317Z,25.20
2022-10-11T04:00:26.927Z,31.47
2022-10-11T04:02:53.573Z,16.80
2022-10-11T04:05:20.182Z,23.80
2022-10-11T04:07:46.747Z,20.53
2022-10-11T04:10:14.134Z,22.10
2022-10-11T04:12:40.736Z,23.23
2022-10-11T04:15:07.929Z,24.97
2022-10-11T04:17:34.550Z,14.93
2022-10-11T04:20:01.123Z,17.40
2022-10-11T04:22:27.683Z,29.17
2022-10-11T04:24:54.237Z,24.07
2022-10-11T04:27:20.925Z,21.30
2022-10-11T04:29:47.578Z,33.37
2022-10-11T04:32:14.186Z,17.33
2022-10-11T04:34:41.893Z,19.07
2022-10-11T04:37:08.461Z,21.00
2022-10-11T04:39:35.122Z,21.40
2022-10-11T04:42:01.790Z,21.37
2022-10-11T04:44:28.563Z,17.37
2022-10-11T04:46:55.173Z,20.83
2022-10-11T04:49:22.073Z,25.10
2022-10-11T04:51:48.719Z,21.27
2022-10-11T04:54:15.621Z,34.37
2022-10-11T04:56:42.365Z,31.57
2022-10-11T04:59:09.250Z,29.23
2022-10-11T05:01:35.884Z,29.93
2022-10-11T05:04:02.806Z,31.37
2022-10-11T05:06:29.561Z,30.00
2022-10-11T05:08:56.164Z,32.73
2022-10-11T05:11:22.825Z,20.03
2022-10-11T05:13:49.467Z,32.77
2022-10-11T05:16:16.746Z,21.83
2022-10-11T05:18:44.204Z,25.47
2022-10-11T05:21:20.348Z,21.23
2022-10-11T05:23:48.425Z,26.33
2022-10-11T05:26:15.994Z,19.87
2022-10-11T05:28:42.954Z,16.23
2022-10-11T05:31:10.468Z,18.07
2022-10-11T05:33:37.105Z,15.93
2022-10-11T05:36:04.581Z,16.07
2022-10-11T05:38:31.466Z,23.57
2022-10-11T05:41:05.347Z,12.97
2022-10-11T05:43:32.441Z,17.13
2022-10-11T05:45:59.092Z,16.03
2022-10-11T05:48:26.734Z,17.87
2022-10-11T05:50:58.601Z,19.93
2022-10-11T05:53:25.203Z,22.97
2022-10-11T05:55:51.773Z,21.50
2022-10-11T05:58:18.627Z,19.27
2022-10-11T06:00:45.218Z,15.10
2022-10-11T06:03:13.355Z,13.80
2022-10-11T06:05:40.374Z,17.90
2022-10-11T06:08:08.634Z,16.77
2022-10-11T06:10:36.137Z,15.57
2022-10-11T06:13:03.252Z,12.87
2022-10-11T06:15:31.374Z,16.40
2022-10-11T06:17:59.185Z,16.70
2022-10-11T06:20:26.832Z,14.20
2022-10-11T06:22:53.617Z,24.80
2022-10-11T06:25:20.187Z,20.57
2022-10-11T06:27:46.765Z,16.60
2022-10-11T06:30:14.167Z,13.50
2022-10-11T06:32:40.734Z,12.80
2022-10-11T06:35:07.820Z,11.13
2022-10-11T06:37:34.375Z,12.30
2022-10-11T06:40:00.972Z,13.30
2022-10-11T06:42:27.581Z,13.77
2022-10-11T06:44:54.183Z,10.43
2022-10-11T06:47:20.872Z,14.80
2022-10-11T06:49:47.466Z,19.13
2022-10-11T06:52:14.066Z,18.77
2022-10-11T06:54:44.704Z,23.13
2022-10-11T06:57:11.897Z,17.07
2022-10-11T06:59:38.487Z,18.47
2022-10-11T07:02:05.098Z,15.17
2022-10-11T07:04:33.663Z,16.67
2022-10-11T07:07:00.283Z,14.83
2022-10-11T07:09:26.863Z,14.33
2022-10-11T07:11:53.440Z,13.40
2022-10-11T07:14:20.008Z,10.67
2022-10-11T07:16:46.593Z,17.03
2022-10-11T07:19:13.209Z,17.20
2022-10-11T07:21:39.863Z,16.67
2022-10-11T07:24:06.636Z,20.83
2022-10-11T07:26:38.961Z,18.03
2022-10-11T07:29:07.754Z,27.17
2022-10-11T07:31:34.577Z,25.23
2022-10-11T07:34:01.122Z,28.17
2022-10-11T07:36:27.739Z,22.93
2022-10-11T07:38:54.325Z,36.03
2022-10-11T07:41:21.382Z,28.13
2022-10-11T07:43:49.527Z,19.87
2022-10-11T07:46:17.719Z,23.63
2022-10-11T07:48:44.324Z,28.20
2022-10-11T07:51:22.951Z,23.27
2022-10-11T07:53:55.334Z,29.07
2022-10-11T07:56:27.283Z,24.87
2022-10-11T07:58:59.579Z,18.80
2022-10-11T08:01:27.562Z,24.77
2022-10-11T08:03:54.715Z,20.40
2022-10-11T08:06:23.088Z,24.43
2022-10-11T08:08:49.924Z,17.93
2022-10-11T08:11:28.638Z,13.73
2022-10-11T08:13:55.337Z,13.87
2022-10-11T08:16:22.198Z,16.97
2022-10-11T08:18:48.897Z,17.80
2022-10-11T08:21:18.740Z,12.80
2022-10-11T08:23:45.858Z,16.60
2022-10-11T08:26:12.551Z,14.00
2022-10-11T08:28:39.353Z,11.17
2022-10-11T08:31:06.153Z,17.47
2022-10-11T08:33:33.008Z,12.13
2022-10-11T08:36:03.670Z,15.57
2022-10-11T08:38:30.493Z,12.93
2022-10-11T08:40:59.390Z,14.67
2022-10-11T08:43:56.439Z,15.87
2022-10-11T08:46:28.946Z,12.47
2022-10-11T08:48:55.620Z,17.80
2022-10-11T08:51:35.851Z,15.20
2022-10-11T08:54:38.338Z,18.77
2022-10-11T08:57:07.022Z,18.37
2022-10-11T08:59:58.257Z,19.33
2022-10-11T09:03:07.564Z,18.80
2022-10-11T09:05:41.578Z,17.83
2022-10-11T09:08:17.341Z,20.23
2022-10-11T09:10:49.738Z,19.17
2022-10-11T09:13:52.481Z,19.00
2022-10-11T09:16:32.488Z,17.73
2022-10-11T09:19:27.261Z,17.77
2022-10-11T09:22:19.782Z,14.27
2022-10-11T09:25:01.553Z,18.10
2022-10-11T09:28:01.105Z,21.13
2022-10-11T09:30:24.969Z,15.37
2022-10-11T09:33:02.333Z,16.97
2022-10-11T09:35:33.437Z,19.37
2022-10-11T09:38:17.414Z,18.50
2022-10-11T09:41:18.468Z,15.70
2022-10-11T09:43:50.882Z,16.80
2022-10-11T09:46:36.843Z,19.97
2022-10-11T09:49:10.248Z,20.93
2022-10-11T09:51:37.619Z,13.13
2022-10-11T09:54:06.322Z,20.07
2022-10-11T09:56:39.976Z,12.90
2022-10-11T09:59:26.637Z,12.13
2022-10-11T10:02:22.948Z,12.73
2022-10-11T10:05:06.803Z,16.77
2022-10-11T10:07:34.698Z,15.50
2022-10-11T10:10:27.754Z,15.60
2022-10-11T10:12:56.938Z,18.40
2022-10-11T10:15:25.759Z,20.70
2022-10-11T10:17:53.329Z,18.93
2022-10-11T10:20:23.523Z,19.30
2022-10-11T10:22:50.955Z,20.00
2022-10-11T10:25:25.590Z,18.17
2022-10-11T10:28:00.960Z,22.53
2022-10-11T10:30:33.063Z,17.13
2022-10-11T10:33:10.847Z,19.20
2022-10-11T10:35:54.222Z,23.17
2022-10-11T10:38:42.250Z,19.83
2022-10-11T10:41:14.163Z,26.87
2022-10-11T10:43:43.134Z,22.90
2022-10-11T10:46:47.435Z,31.20
2022-10-11T10:49:52.031Z,22.17
2022-10-11T10:52:45.956Z,20.73
2022-10-11T10:55:45.015Z,18.80
2022-10-11T10:58:32.702Z,27.03
2022-10-11T11:01:06.109Z,20.57
2022-10-11T11:04:06.670Z,18.17
2022-10-11T11:06:52.107Z,19.07
2022-10-11T11:09:40.360Z,20.50
2022-10-11T11:12:28.282Z,23.83
2022-10-11T11:15:19.672Z,16.63
2022-10-11T11:17:59.021Z,21.27
2022-10-11T11:20:49.095Z,13.10
2022-10-11T11:23:23.665Z,22.10
2022-10-11T11:26:12.800Z,16.47
2022-10-11T11:28:57.845Z,15.97
2022-10-11T11:31:55.094Z,13.43
2022-10-11T11:34:28.510Z,14.87
2022-10-11T11:37:01.831Z,19.63
2022-10-11T11:39:34.349Z,16.10
2022-10-11T11:42:26.373Z,14.67
2022-10-11T11:44:53.451Z,16.93
2022-10-11T11:47:25.542Z,12.87
2022-10-11T11:50:03.669Z,12.83
2022-10-11T11:52:37.039Z,14.47
2022-10-11T11:55:42.185Z,20.57
2022-10-11T11:58:37.428Z,13.03
2022-10-11T12:01:31.488Z,15.33
2022-10-11T12:04:26.620Z,15.33
2022-10-11T12:07:21.642Z,13.87
2022-10-11T12:09:52.266Z,16.93
2022-10-11T12:12:37.284Z,13.67
2022-10-11T12:15:12.465Z,14.97
2022-10-11T12:17:57.626Z,12.53
2022-10-11T12:20:32.485Z,10.40
2022-10-11T12:23:23.370Z,11.57
2022-10-11T12:26:15.797Z,13.67
2022-10-11T12:28:42.824Z,12.37
2022-10-11T12:31:22.098Z,13.47
2022-10-11T12:33:53.429Z,10.50
2022-10-11T12:36:29.619Z,14.13
2022-10-11T12:39:18.087Z,17.43
2022-10-11T12:41:47.663Z,15.30
2022-10-11T12:44:28.479Z,9.83
2022-10-11T12:46:55.005Z,11.07
2022-10-11T12:49:33.902Z,10.07
2022-10-11T12:52:20.051Z,12.87
2022-10-11T12:54:54.790Z,8.47
2022-10-11T12:57:47.356Z,11.23
2022-10-11T13:00:30.956Z,8.90
2022-10-11T13:03:28.452Z,15.57
2022-10-11T13:06:01.828Z,8.33
2022-10-11T13:08:34.782Z,7.97
2022-10-11T13:11:04.334Z,10.67
2022-10-11T13:13:45.166Z,9.37
2022-10-11T13:16:22.240Z,7.67
2022-10-11T13:18:53.728Z,10.73
2022-10-11T13:21:32.395Z,7.00
2022-10-11T13:24:01.975Z,10.33
2022-10-11T13:26:31.219Z,5.53
2022-10-11T13:28:58.385Z,7.63
2022-10-11T13:31:25.546Z,11.23
2022-10-11T13:33:59.011Z,7.40
2022-10-11T13:36:27.027Z,8.00
2022-10-11T13:38:57.769Z,7.30
2022-10-11T13:41:27.346Z,9.43
2022-10-11T13:43:59.212Z,74.60
2022-10-11T13:46:27.967Z,26.87
2022-10-11T13:49:03.024Z,24.83
2022-10-11T13:51:35.986Z,9.47
2022-10-11T13:54:13.622Z,6.40
2022-10-11T13:56:50.794Z,13.13
2022-10-11T13:59:20.442Z,8.20
2022-10-11T14:01:48.044Z,6.23
2022-10-11T14:04:17.154Z,38.73
2022-10-11T14:06:52.078Z,11.80
2022-10-11T14:09:31.184Z,10.30
2022-10-11T14:12:25.786Z,6.50
2022-10-11T14:14:52.666Z,8.77
2022-10-11T14:17:32.730Z,9.67
2022-10-11T14:20:15.306Z,9.90
2022-10-11T14:22:42.229Z,16.27
2022-10-11T14:25:08.888Z,9.17
2022-10-11T14:27:37.376Z,7.43
2022-10-11T14:30:24.952Z,11.80
2022-10-11T14:32:54.897Z,9.57
2022-10-11T14:35:27.035Z,9.60
2022-10-11T14:37:54.040Z,9.30
2022-10-11T14:40:31.456Z,5.57
2022-10-11T14:42:58.176Z,9.43
2022-10-11T14:45:24.947Z,7.77
2022-10-11T14:47:51.899Z,4.73
2022-10-11T14:50:40.468Z,7.20
2022-10-11T14:53:08.834Z,5.63
2022-10-11T14:55:36.819Z,8.60
2022-10-11T14:58:04.698Z,8.10
2022-10-11T15:00:32.250Z,9.97
2022-10-11T15:02:59.229Z,11.57
2022-10-11T15:05:33.480Z,8.10
2022-10-11T15:08:05.178Z,8.80
2022-10-11T15:10:38.982Z,8.60
2022-10-11T15:13:07.074Z,5.43
2022-10-11T15:15:36.735Z,8.10
2022-10-11T15:18:05.973Z,7.57
2022-10-11T15:20:36.235Z,6.43
2022-10-11T15:23:04.192Z,7.33
2022-10-11T15:25:30.956Z,8.73
2022-10-11T15:27:57.949Z,5.13
2022-10-11T15:30:30.586Z,5.40
2022-10-11T15:32:57.636Z,5.70
2022-10-11T15:35:25.231Z,6.43
2022-10-11T15:37:53.369Z,7.27
2022-10-11T15:40:25.950Z,12.33
2022-10-11T15:42:54.333Z,10.10
2022-10-11T15:45:21.753Z,13.17
2022-10-11T15:47:48.596Z,6.83
2022-10-11T15:50:33.576Z,7.57
2022-10-11T15:53:01.448Z,6.27
2022-10-11T15:55:28.369Z,7.20
2022-10-11T15:57:54.917Z,8.37
2022-10-11T16:00:22.449Z,9.10
2022-10-11T16:02:51.690Z,6.93
2022-10-11T16:05:23.310Z,11.90
2022-10-11T16:07:50.194Z,6.67
2022-10-11T16:10:17.070Z,15.07
2022-10-11T16:12:43.719Z,8.37
2022-10-11T16:15:10.867Z,10.53
2022-10-11T16:17:37.496Z,8.07
2022-10-11T16:20:06.647Z,6.30
2022-10-11T16:22:34.990Z,6.57
2022-10-11T16:25:02.667Z,4.13
2022-10-11T16:27:29.307Z,5.20
2022-10-11T16:29:56.157Z,6.17
2022-10-11T16:32:24.271Z,8.77
2022-10-11T16:34:50.974Z,11.30
2022-10-11T16:37:17.544Z,6.83
2022-10-11T16:39:44.268Z,7.00
2022-10-11T16:42:11.402Z,6.67
2022-10-11T16:44:39.237Z,11.27
2022-10-11T16:47:06.732Z,7.23
2022-10-11T16:49:33.853Z,12.67
2022-10-11T16:52:02.420Z,8.13
2022-10-11T16:54:32.879Z,7.50
2022-10-11T16:57:00.019Z,6.63
2022-10-11T16:59:27.085Z,8.80
2022-10-11T17:01:53.921Z,7.47
2022-10-11T17:04:20.874Z,8.20
2022-10-11T17:06:47.520Z,13.17
2022-10-11T17:09:14.451Z,10.63
2022-10-11T17:11:41.613Z,9.63
2022-10-11T17:14:08.805Z,11.40
2022-10-11T17:16:35.623Z,4.63
2022-10-11T17:19:03.397Z,11.37
2022-10-11T17:21:30.049Z,5.37
2022-10-11T17:23:56.661Z,8.03
2022-10-11T17:26:26.220Z,6.23
2022-10-11T17:28:57.676Z,12.23
2022-10-11T17:31:24.944Z,7.93
2022-10-11T17:33:53.074Z,10.67
2022-10-11T17:36:24.873Z,8.17
2022-10-11T17:38:52.206Z,5.97
2022-10-11T17:41:19.037Z,6.80
2022-10-11T17:43:46.370Z,12.07
2022-10-11T17:46:15.131Z,6.97
2022-10-11T17:48:42.072Z,7.73
2022-10-11T17:51:10.227Z,8.30
2022-10-11T17:53:37.749Z,11.60
2022-10-11T17:56:16.246Z,7.37
2022-10-11T17:58:43.339Z,10.80
2022-10-11T18:01:15.933Z,9.60
2022-10-11T18:03:43.656Z,8.53
2022-10-11T18:06:12.655Z,9.07
2022-10-11T18:08:40.843Z,9.07
2022-10-11T18:11:13.290Z,9.07
2022-10-11T18:13:42.746Z,12.57
2022-10-11T18:16:10.113Z,14.03
2022-10-11T18:18:37.107Z,10.67
2022-10-11T18:21:03.847Z,10.53
2022-10-11T18:23:30.717Z,9.53
2022-10-11T18:25:57.273Z,10.93
2022-10-11T18:28:23.988Z,9.93
2022-10-11T18:30:51.953Z,7.77
2022-10-11T18:33:18.603Z,13.97
2022-10-11T18:35:45.160Z,7.40
2022-10-11T18:38:12.038Z,6.07
2022-10-11T18:40:43.392Z,8.93
2022-10-11T18:43:11.343Z,6.53
2022-10-11T18:45:37.889Z,8.03
2022-10-11T18:48:04.693Z,7.50
2022-10-11T18:50:34.846Z,9.53
2022-10-11T18:53:02.358Z,6.93
2022-10-11T18:55:29.040Z,6.57
2022-10-11T18:57:55.774Z,4.63
2022-10-11T19:00:40.372Z,7.83
2022-10-11T19:03:07.647Z,7.60
2022-10-11T19:05:34.226Z,5.87
2022-10-11T19:08:00.813Z,6.10
2022-10-11T19:10:28.027Z,6.80
2022-10-11T19:12:54.585Z,5.00
2022-10-11T19:15:24.148Z,10.23
2022-10-11T19:17:53.109Z,13.73
2022-10-11T19:20:19.773Z,12.43
2022-10-11T19:22:46.359Z,9.20
2022-10-11T19:25:12.904Z,4.93
2022-10-11T19:27:39.515Z,5.73
2022-10-11T19:30:06.712Z,13.33
2022-10-11T19:32:33.292Z,9.27
2022-10-11T19:34:59.893Z,14.70
2022-10-11T19:37:26.532Z,4.07
2022-10-11T19:39:53.147Z,9.07
2022-10-11T19:42:20.016Z,5.43
2022-10-11T19:44:46.563Z,4.40
2022-10-11T19:47:13.104Z,7.53
2022-10-11T19:49:39.679Z,3.87
2022-10-11T19:52:06.300Z,7.90
2022-10-11T19:54:32.963Z,5.43
2022-10-11T19:56:59.526Z,8.10
2022-10-11T19:59:27.941Z,7.30
2022-10-11T20:01:54.519Z,7.57
2022-10-11T20:04:50.669Z,4.70
2022-10-11T20:07:08.654Z,6.70
2022-10-11T20:09:35.222Z,6.90
2022-10-11T20:12:01.839Z,7.97
2022-10-11T20:14:28.423Z,6.57
2022-10-11T20:16:54.984Z,4.50
2022-10-11T20:19:26.297Z,3.73
2022-10-11T20:21:56.071Z,4.20
2022-10-11T20:24:22.678Z,6.67
2022-10-11T20:26:49.267Z,3.97
2022-10-11T20:29:16.107Z,4.53
2022-10-11T20:31:42.791Z,5.30
2022-10-11T20:34:10.300Z,5.67
2022-10-11T20:36:37.068Z,13.73
2022-10-11T20:39:05.526Z,10.73
2022-10-11T20:41:36.948Z,6.97
2022-10-11T20:44:04.534Z,6.70
2022-10-11T20:46:33.405Z,6.87
2022-10-11T20:49:03.180Z,5.60
2022-10-11T20:51:31.418Z,6.73
2022-10-11T20:53:59.181Z,6.30
2022-10-11T20:56:26.647Z,4.50
2022-10-11T20:58:54.864Z,6.13
2022-10-11T21:01:26.299Z,6.60
2022-10-11T21:03:53.510Z,7.23
2022-10-11T21:06:20.509Z,13.83
2022-10-11T21:08:47.131Z,7.67
2022-10-11T21:11:13.721Z,7.53
2022-10-11T21:13:40.586Z,3.00
2022-10-11T21:16:15.763Z,7.13
2022-10-11T21:18:43.001Z,4.43
2022-10-11T21:21:12.508Z,9.37
2022-10-11T21:23:39.793Z,5.90
2022-10-11T21:26:08.901Z,6.73
2022-10-11T21:28:35.592Z,6.43
2022-10-11T21:31:07.036Z,6.27
2022-10-11T21:33:34.482Z,8.70
2022-10-11T21:36:05.914Z,9.53
2022-10-11T21:38:33.506Z,5.50
2022-10-11T21:41:04.597Z,8.23
2022-10-11T21:43:31.381Z,4.93
2022-10-11T21:45:57.966Z,6.80
2022-10-11T21:48:24.722Z,4.30
2022-10-11T21:50:55.296Z,5.57
2022-10-11T21:53:21.965Z,3.07
2022-10-11T21:55:48.507Z,5.93
2022-10-11T21:58:15.158Z,5.43
2022-10-11T22:00:41.743Z,5.60
2022-10-11T22:03:08.673Z,9.00
2022-10-11T22:05:35.470Z,8.50
2022-10-11T22:08:02.143Z,5.60
2022-10-11T22:10:29.024Z,7.83
2022-10-11T22:12:55.791Z,3.93
2022-10-11T22:15:22.469Z,4.90
2022-10-11T22:17:49.026Z,4.73
2022-10-11T22:20:15.822Z,7.10
2022-10-11T22:22:42.445Z,5.73
2022-10-11T22:25:09.255Z,4.80
2022-10-11T22:27:35.853Z,2.67
2022-10-11T22:30:02.488Z,3.57
2022-10-11T22:32:29.117Z,2.07
2022-10-11T22:34:55.895Z,2.67
2022-10-11T22:37:22.715Z,3.70
2022-10-11T22:39:49.310Z,5.73
2022-10-11T22:42:15.862Z,2.60
2022-10-11T22:44:42.420Z,2.77
2022-10-11T22:47:09.004Z,3.93
2022-10-11T22:49:35.576Z,2.57
2022-10-11T22:52:02.174Z,4.07
2022-10-11T22:54:28.780Z,1.97
2022-10-11T22:56:55.394Z,14.13
2022-10-11T22:59:21.998Z,3.07
2022-10-11T23:01:48.596Z,5.87
2022-10-11T23:04:17.547Z,3.40
2022-10-11T23:06:44.172Z,6.00
2022-10-11T23:09:10.746Z,7.63
2022-10-11T23:11:37.300Z,8.50
2022-10-11T23:14:03.963Z,7.17
2022-10-11T23:16:30.594Z,4.13
2022-10-11T23:18:57.354Z,7.90
2022-10-11T23:21:24.024Z,5.50
2022-10-11T23:23:54.020Z,5.00
2022-10-11T23:26:21.220Z,3.13
2022-10-11T23:28:47.858Z,6.63
2022-10-11T23:31:17.139Z,6.63
2022-10-11T23:33:44.850Z,2.47
2022-10-11T23:36:20.666Z,2.50
2022-10-11T23:38:58.237Z,7.50
2022-10-11T23:41:27.437Z,4.77
2022-10-11T23:43:54.520Z,6.27
2022-10-11T23:46:21.160Z,7.50
2022-10-11T23:48:48.270Z,6.30
2022-10-11T23:51:15.303Z,5.30
2022-10-11T23:53:42.562Z,7.73
2022-10-11T23:56:10.602Z,3.50
2022-10-11T23:58:37.585Z,3.40
